createdAt,value
2019-01-20T00:00:41.164Z,401
2019-01-20T00:01:48.367Z,400
2019-01-20T00:02:55.575Z,400
2019-01-20T00:04:02.774Z,401
2019-01-20T00:05:10.015Z,402
2019-01-20T00:06:17.226Z,401
2019-01-20T00:07:28.128Z,400
2019-01-20T00:08:35.047Z,400
2019-01-20T00:09:42.253Z,400
2019-01-20T00:10:49.454Z,400
2019-01-20T00:11:56.663Z,401
2019-01-20T00:13:03.300Z,401
2019-01-20T00:14:10.514Z,401
2019-01-20T00:15:17.705Z,401
2019-01-20T00:16:24.903Z,401
2019-01-20T00:17:32.099Z,401
2019-01-20T00:18:39.017Z,401
2019-01-20T00:19:46.208Z,401
2019-01-20T00:20:53.075Z,401
2019-01-20T00:22:00.263Z,401
2019-01-20T00:23:07.223Z,402
2019-01-20T00:24:14.161Z,401
2019-01-20T00:25:21.356Z,401
2019-01-20T00:26:28.564Z,401
2019-01-20T00:27:35.760Z,401
2019-01-20T00:28:42.951Z,400
2019-01-20T00:29:50.143Z,399
2019-01-20T00:30:57.345Z,399
2019-01-20T00:32:04.285Z,399
2019-01-20T00:33:11.482Z,400
2019-01-20T00:34:18.950Z,400
2019-01-20T00:35:26.227Z,401
2019-01-20T00:36:33.425Z,401
2019-01-20T00:37:40.827Z,402
2019-01-20T00:38:48.028Z,402
2019-01-20T00:39:55.223Z,401
2019-01-20T00:41:02.420Z,401
2019-01-20T00:42:09.616Z,402
2019-01-20T00:43:16.543Z,403
2019-01-20T00:44:23.740Z,402
2019-01-20T00:45:30.947Z,403
2019-01-20T00:46:37.895Z,401
2019-01-20T00:47:45.134Z,401
2019-01-20T00:48:52.323Z,400
2019-01-20T00:49:59.265Z,401
2019-01-20T00:51:05.919Z,402
2019-01-20T00:52:12.874Z,402
2019-01-20T00:53:20.073Z,402
2019-01-20T00:54:27.291Z,403
2019-01-20T00:55:34.224Z,402
2019-01-20T00:56:41.180Z,402
2019-01-20T00:57:48.378Z,402
2019-01-20T00:58:55.569Z,402
2019-01-20T01:00:02.874Z,402
2019-01-20T01:01:10.070Z,401
2019-01-20T01:02:17.264Z,403
2019-01-20T01:03:24.188Z,403
2019-01-20T01:04:31.098Z,404
2019-01-20T01:05:38.296Z,403
2019-01-20T01:06:45.540Z,403
2019-01-20T01:07:52.757Z,403
2019-01-20T01:08:59.957Z,401
2019-01-20T01:10:07.166Z,401
2019-01-20T01:11:14.372Z,402
2019-01-20T01:12:21.292Z,403
2019-01-20T01:13:28.489Z,403
2019-01-20T01:14:35.684Z,404
2019-01-20T01:15:42.626Z,404
2019-01-20T01:16:49.544Z,405
2019-01-20T01:17:56.492Z,405
2019-01-20T01:19:03.702Z,404
2019-01-20T01:20:10.644Z,404
2019-01-20T01:21:17.841Z,403
2019-01-20T01:22:25.071Z,402
2019-01-20T01:23:31.985Z,404
2019-01-20T01:24:38.904Z,404
2019-01-20T01:25:46.099Z,404
2019-01-20T01:26:53.295Z,404
2019-01-20T01:28:00.221Z,404
2019-01-20T01:29:07.151Z,405
2019-01-20T01:30:14.350Z,405
2019-01-20T01:31:21.543Z,404
2019-01-20T01:32:28.745Z,403
2019-01-20T01:33:35.944Z,404
2019-01-20T01:34:43.143Z,404
2019-01-20T01:35:50.344Z,405
2019-01-20T01:36:57.544Z,405
2019-01-20T01:38:04.738Z,405
2019-01-20T01:39:11.942Z,405
2019-01-20T01:40:19.142Z,405
2019-01-20T01:41:26.344Z,405
2019-01-20T01:42:33.543Z,404
2019-01-20T01:43:40.755Z,404
2019-01-20T01:44:47.680Z,405
2019-01-20T01:45:54.892Z,405
2019-01-20T01:47:02.086Z,405
2019-01-20T01:48:09.314Z,405
2019-01-20T01:49:16.519Z,405
2019-01-20T01:50:23.712Z,405
2019-01-20T01:51:30.912Z,406
2019-01-20T01:52:38.104Z,407
2019-01-20T01:53:45.294Z,405
2019-01-20T01:54:52.491Z,405
2019-01-20T01:55:59.690Z,407
2019-01-20T01:57:06.920Z,406
2019-01-20T01:58:14.111Z,405
2019-01-20T01:59:21.319Z,405
2019-01-20T02:00:28.516Z,406
2019-01-20T02:01:35.732Z,407
2019-01-20T02:02:42.654Z,406
2019-01-20T02:03:49.849Z,408
2019-01-20T02:04:57.044Z,407
2019-01-20T02:06:04.260Z,408
2019-01-20T02:07:11.460Z,408
2019-01-20T02:08:18.672Z,408
2019-01-20T02:09:25.883Z,407
2019-01-20T02:10:32.795Z,407
2019-01-20T02:11:47.232Z,409
2019-01-20T02:12:54.423Z,407
2019-01-20T02:14:01.612Z,407
2019-01-20T02:15:08.824Z,407
2019-01-20T02:16:16.017Z,408
2019-01-20T02:17:23.213Z,409
2019-01-20T02:18:30.149Z,408
2019-01-20T02:19:37.350Z,408
2019-01-20T02:20:44.273Z,408
2019-01-20T02:21:51.470Z,408
2019-01-20T02:22:58.679Z,408
2019-01-20T02:24:05.898Z,408
2019-01-20T02:25:13.106Z,409
2019-01-20T02:26:20.048Z,408
2019-01-20T02:27:27.241Z,410
2019-01-20T02:28:34.445Z,409
2019-01-20T02:29:41.649Z,408
2019-01-20T02:30:48.850Z,408
2019-01-20T02:31:56.045Z,408
2019-01-20T02:33:03.245Z,409
2019-01-20T02:34:10.440Z,408
2019-01-20T02:35:17.643Z,408
2019-01-20T02:36:24.841Z,408
2019-01-20T02:37:32.049Z,408
2019-01-20T02:38:39.304Z,407
2019-01-20T02:39:46.258Z,407
2019-01-20T02:40:53.449Z,406
2019-01-20T02:42:00.663Z,406
2019-01-20T02:43:07.871Z,405
2019-01-20T02:44:15.073Z,406
2019-01-20T02:45:22.266Z,407
2019-01-20T02:46:29.198Z,407
2019-01-20T02:47:36.409Z,408
2019-01-20T02:48:43.600Z,409
2019-01-20T02:49:50.813Z,409
2019-01-20T02:50:58.017Z,408
2019-01-20T02:52:04.947Z,408
2019-01-20T02:53:11.885Z,409
2019-01-20T02:54:19.079Z,409
2019-01-20T02:55:26.278Z,410
2019-01-20T02:56:33.206Z,409
2019-01-20T02:57:40.414Z,408
2019-01-20T02:58:47.325Z,409
2019-01-20T02:59:54.518Z,408
2019-01-20T03:01:01.452Z,406
2019-01-20T03:02:08.670Z,406
2019-01-20T03:03:15.884Z,407
2019-01-20T03:04:23.092Z,408
2019-01-20T03:05:30.290Z,407
2019-01-20T03:06:37.497Z,406
2019-01-20T03:07:44.701Z,407
2019-01-20T03:08:51.619Z,408
2019-01-20T03:09:58.548Z,409
2019-01-20T03:11:05.748Z,409
2019-01-20T03:12:12.943Z,409
2019-01-20T03:13:20.162Z,410
2019-01-20T03:14:27.078Z,409
2019-01-20T03:15:34.284Z,410
2019-01-20T03:16:41.518Z,410
2019-01-20T03:17:48.443Z,410
2019-01-20T03:18:55.641Z,410
2019-01-20T03:20:02.837Z,410
2019-01-20T03:21:10.045Z,410
2019-01-20T03:22:16.970Z,410
2019-01-20T03:23:24.174Z,409
2019-01-20T03:24:31.366Z,409
2019-01-20T03:25:38.563Z,409
2019-01-20T03:26:45.765Z,409
2019-01-20T03:27:52.698Z,409
2019-01-20T03:28:59.888Z,409
2019-01-20T03:30:07.094Z,410
2019-01-20T03:31:14.540Z,409
2019-01-20T03:32:21.735Z,409
2019-01-20T03:33:28.718Z,409
2019-01-20T03:34:35.635Z,409
2019-01-20T03:35:42.848Z,409
2019-01-20T03:36:50.064Z,409
2019-01-20T03:37:57.263Z,409
2019-01-20T03:39:04.220Z,409
2019-01-20T03:40:11.416Z,410
2019-01-20T03:41:18.345Z,410
2019-01-20T03:42:25.548Z,409
2019-01-20T03:43:32.752Z,410
2019-01-20T03:44:39.995Z,410
2019-01-20T03:45:46.918Z,409
2019-01-20T03:46:53.853Z,409
2019-01-20T03:48:01.060Z,409
2019-01-20T03:49:08.023Z,409
2019-01-20T03:50:14.953Z,409
2019-01-20T03:51:22.164Z,409
2019-01-20T03:52:29.388Z,409
2019-01-20T03:53:36.593Z,409
2019-01-20T03:54:43.817Z,410
2019-01-20T03:55:50.744Z,409
2019-01-20T03:56:57.943Z,409
2019-01-20T03:58:04.587Z,410
2019-01-20T03:59:11.502Z,410
2019-01-20T04:00:18.714Z,410
2019-01-20T04:01:25.903Z,410
2019-01-20T04:02:32.834Z,409
2019-01-20T04:03:39.758Z,409
2019-01-20T04:04:46.967Z,409
2019-01-20T04:05:54.176Z,409
2019-01-20T04:07:01.375Z,409
2019-01-20T04:08:08.293Z,410
2019-01-20T04:09:15.495Z,409
2019-01-20T04:10:22.709Z,408
2019-01-20T04:11:29.897Z,408
2019-01-20T04:12:37.095Z,407
2019-01-20T04:13:44.031Z,407
2019-01-20T04:14:51.441Z,408
2019-01-20T04:15:58.635Z,408
2019-01-20T04:17:06.081Z,409
2019-01-20T04:18:13.011Z,407
2019-01-20T04:19:20.229Z,408
2019-01-20T04:20:27.156Z,409
2019-01-20T04:21:34.091Z,408
2019-01-20T04:22:41.296Z,408
2019-01-20T04:23:50.058Z,409
2019-01-20T04:24:57.440Z,410
2019-01-20T04:26:04.370Z,409
2019-01-20T04:27:11.300Z,410
2019-01-20T04:28:18.213Z,410
2019-01-20T04:29:25.432Z,410
2019-01-20T04:30:32.648Z,410
2019-01-20T04:31:39.839Z,411
2019-01-20T04:32:46.532Z,410
2019-01-20T04:33:53.736Z,411
2019-01-20T04:35:00.963Z,411
2019-01-20T04:36:08.153Z,411
2019-01-20T04:37:15.357Z,411
2019-01-20T04:38:22.301Z,410
2019-01-20T04:39:29.493Z,410
2019-01-20T04:40:36.698Z,409
2019-01-20T04:41:43.901Z,410
2019-01-20T04:42:50.882Z,410
2019-01-20T04:43:58.077Z,410
2019-01-20T04:45:05.017Z,410
2019-01-20T04:46:12.218Z,410
2019-01-20T04:47:19.173Z,410
2019-01-20T04:48:26.370Z,409
2019-01-20T04:49:33.570Z,409
2019-01-20T04:50:40.768Z,410
2019-01-20T04:51:47.976Z,409
2019-01-20T04:52:54.919Z,410
2019-01-20T04:54:02.118Z,411
2019-01-20T04:55:09.325Z,410
2019-01-20T04:56:16.524Z,410
2019-01-20T04:57:23.729Z,410
2019-01-20T04:58:30.923Z,410
2019-01-20T04:59:38.119Z,409
2019-01-20T05:00:45.311Z,409
2019-01-20T05:01:52.531Z,410
2019-01-20T05:02:59.733Z,410
2019-01-20T05:04:06.933Z,410
2019-01-20T05:05:13.852Z,411
2019-01-20T05:06:21.048Z,411
2019-01-20T05:07:28.257Z,410
2019-01-20T05:08:35.475Z,410
2019-01-20T05:09:42.671Z,411
2019-01-20T05:10:49.608Z,410
2019-01-20T05:11:56.805Z,410
2019-01-20T05:13:04.056Z,410
2019-01-20T05:14:11.256Z,410
2019-01-20T05:15:18.458Z,409
2019-01-20T05:16:25.660Z,409
2019-01-20T05:17:32.854Z,409
2019-01-20T05:18:40.049Z,409
2019-01-20T05:19:47.247Z,409
2019-01-20T05:20:54.448Z,409
2019-01-20T05:22:01.641Z,410
2019-01-20T05:23:08.563Z,410
2019-01-20T05:24:15.496Z,410
2019-01-20T05:25:22.699Z,410
2019-01-20T05:26:29.889Z,410
2019-01-20T05:27:37.088Z,409
2019-01-20T05:28:44.024Z,410
2019-01-20T05:29:51.243Z,409
2019-01-20T05:30:58.452Z,409
2019-01-20T05:32:05.105Z,410
2019-01-20T05:33:12.305Z,409
2019-01-20T05:34:18.950Z,410
2019-01-20T05:35:26.147Z,411
2019-01-20T05:36:33.342Z,410
2019-01-20T05:37:40.288Z,409
2019-01-20T05:38:47.491Z,409
2019-01-20T05:39:54.395Z,410
2019-01-20T05:41:01.591Z,410
2019-01-20T05:42:08.508Z,411
2019-01-20T05:43:15.705Z,410
2019-01-20T05:44:22.911Z,410
2019-01-20T05:45:30.139Z,410
2019-01-20T05:46:37.332Z,410
2019-01-20T05:47:44.533Z,410
2019-01-20T05:48:51.755Z,410
2019-01-20T05:49:58.678Z,410
2019-01-20T05:51:05.898Z,410
2019-01-20T05:52:13.098Z,411
2019-01-20T05:53:20.288Z,408
2019-01-20T05:54:27.492Z,410
2019-01-20T05:55:34.690Z,409
2019-01-20T05:56:41.896Z,409
2019-01-20T05:57:49.091Z,409
2019-01-20T05:58:55.774Z,410
2019-01-20T06:00:02.718Z,410
2019-01-20T06:01:09.921Z,410
2019-01-20T06:02:17.127Z,410
2019-01-20T06:03:24.326Z,411
2019-01-20T06:04:31.555Z,411
2019-01-20T06:05:38.741Z,410
2019-01-20T06:06:45.942Z,410
2019-01-20T06:07:53.137Z,410
2019-01-20T06:09:00.434Z,410
2019-01-20T06:10:07.356Z,409
2019-01-20T06:11:14.553Z,409
2019-01-20T06:12:21.754Z,409
2019-01-20T06:13:28.957Z,408
2019-01-20T06:14:36.162Z,408
2019-01-20T06:15:44.884Z,408
2019-01-20T06:16:52.146Z,409
2019-01-20T06:17:59.062Z,409
2019-01-20T06:19:06.268Z,409
2019-01-20T06:20:13.462Z,409
2019-01-20T06:21:20.658Z,409
2019-01-20T06:22:27.301Z,409
2019-01-20T06:23:34.491Z,409
2019-01-20T06:24:41.697Z,410
2019-01-20T06:25:48.892Z,410
2019-01-20T06:26:55.832Z,410
2019-01-20T06:28:03.037Z,409
2019-01-20T06:29:10.246Z,410
2019-01-20T06:30:17.179Z,410
2019-01-20T06:31:24.422Z,410
2019-01-20T06:32:31.618Z,411
2019-01-20T06:33:38.565Z,412
2019-01-20T06:34:45.770Z,411
2019-01-20T06:35:52.965Z,411
2019-01-20T06:37:00.165Z,411
2019-01-20T06:38:07.373Z,411
2019-01-20T06:39:14.575Z,411
2019-01-20T06:40:21.774Z,412
2019-01-20T06:41:28.430Z,412
2019-01-20T06:42:35.639Z,411
2019-01-20T06:43:42.598Z,411
2019-01-20T06:44:49.806Z,412
2019-01-20T06:45:57.003Z,412
2019-01-20T06:47:04.207Z,412
2019-01-20T06:48:11.406Z,411
2019-01-20T06:49:18.613Z,412
2019-01-20T06:50:25.808Z,413
2019-01-20T06:51:33.008Z,412
2019-01-20T06:52:40.208Z,412
2019-01-20T06:53:47.412Z,412
2019-01-20T06:54:54.648Z,411
2019-01-20T06:56:01.848Z,411
2019-01-20T06:57:08.771Z,412
2019-01-20T06:58:15.994Z,411
2019-01-20T06:59:23.202Z,411
2019-01-20T07:00:30.133Z,410
2019-01-20T07:01:37.334Z,411
2019-01-20T07:02:44.547Z,410
2019-01-20T07:03:51.752Z,410
2019-01-20T07:04:58.670Z,411
2019-01-20T07:06:05.882Z,410
2019-01-20T07:07:12.810Z,411
2019-01-20T07:08:19.728Z,409
2019-01-20T07:09:26.938Z,410
2019-01-20T07:10:33.876Z,408
2019-01-20T07:11:40.842Z,409
2019-01-20T07:12:47.768Z,408
2019-01-20T07:13:54.991Z,409
2019-01-20T07:15:02.196Z,409
2019-01-20T07:16:09.396Z,411
2019-01-20T07:17:16.605Z,410
2019-01-20T07:18:23.798Z,410
2019-01-20T07:19:31.006Z,410
2019-01-20T07:20:38.205Z,410
2019-01-20T07:21:45.136Z,410
2019-01-20T07:22:52.355Z,409
2019-01-20T07:23:59.280Z,409
2019-01-20T07:25:06.255Z,408
2019-01-20T07:26:13.191Z,409
2019-01-20T07:27:20.441Z,408
2019-01-20T07:28:27.376Z,408
2019-01-20T07:29:34.303Z,408
2019-01-20T07:30:41.516Z,408
2019-01-20T07:31:48.718Z,408
2019-01-20T07:32:55.641Z,408
2019-01-20T07:34:02.866Z,408
2019-01-20T07:35:10.063Z,407
2019-01-20T07:36:17.281Z,407
2019-01-20T07:37:24.579Z,407
2019-01-20T07:38:31.785Z,407
2019-01-20T07:39:38.732Z,408
2019-01-20T07:40:45.938Z,408
2019-01-20T07:41:53.142Z,407
2019-01-20T07:43:00.342Z,408
2019-01-20T07:44:07.300Z,407
2019-01-20T07:45:14.487Z,407
2019-01-20T07:46:21.424Z,408
2019-01-20T07:47:28.360Z,408
2019-01-20T07:48:35.555Z,407
2019-01-20T07:49:42.803Z,407
2019-01-20T07:50:49.997Z,407
2019-01-20T07:51:56.923Z,406
2019-01-20T07:53:03.566Z,406
2019-01-20T07:54:10.769Z,406
2019-01-20T07:55:17.702Z,406
2019-01-20T07:56:24.909Z,406
2019-01-20T07:57:32.103Z,405
2019-01-20T07:58:39.307Z,406
2019-01-20T07:59:46.504Z,405
2019-01-20T08:00:53.444Z,405
2019-01-20T08:02:00.642Z,404
2019-01-20T08:03:07.582Z,404
2019-01-20T08:04:14.791Z,405
2019-01-20T08:05:21.998Z,403
2019-01-20T08:06:29.201Z,404
2019-01-20T08:07:36.435Z,404
2019-01-20T08:08:43.381Z,404
2019-01-20T08:09:50.644Z,403
2019-01-20T08:10:57.833Z,404
2019-01-20T08:12:05.051Z,404
2019-01-20T08:13:12.255Z,404
2019-01-20T08:14:19.218Z,403
2019-01-20T08:15:26.147Z,404
2019-01-20T08:16:33.367Z,404
2019-01-20T08:17:40.565Z,404
2019-01-20T08:18:47.507Z,404
2019-01-20T08:19:54.752Z,403
2019-01-20T08:21:01.682Z,403
2019-01-20T08:22:08.917Z,403
2019-01-20T08:23:16.127Z,403
2019-01-20T08:24:23.335Z,403
2019-01-20T08:25:30.591Z,402
2019-01-20T08:26:37.780Z,401
2019-01-20T08:27:44.985Z,401
2019-01-20T08:28:52.191Z,401
2019-01-20T08:29:59.396Z,402
2019-01-20T08:31:06.588Z,401
2019-01-20T08:32:13.518Z,401
2019-01-20T08:33:20.737Z,402
2019-01-20T08:34:27.947Z,402
2019-01-20T08:35:35.152Z,402
2019-01-20T08:36:42.364Z,402
2019-01-20T08:37:49.556Z,402
2019-01-20T08:38:56.762Z,402
2019-01-20T08:40:03.962Z,402
2019-01-20T08:41:10.893Z,401
2019-01-20T08:42:18.146Z,401
2019-01-20T08:43:32.428Z,401
2019-01-20T08:44:39.363Z,401
2019-01-20T08:45:46.563Z,400
2019-01-20T08:46:53.774Z,400
2019-01-20T08:48:00.972Z,400
2019-01-20T08:49:08.174Z,399
2019-01-20T08:50:15.421Z,399
2019-01-20T08:51:22.622Z,399
2019-01-20T08:52:29.824Z,399
2019-01-20T08:53:37.055Z,399
2019-01-20T08:54:44.253Z,398
2019-01-20T08:55:51.174Z,397
2019-01-20T08:56:58.394Z,398
2019-01-20T08:58:05.317Z,397
2019-01-20T08:59:12.530Z,398
2019-01-20T09:00:19.728Z,398
2019-01-20T09:01:26.924Z,397
2019-01-20T09:02:33.865Z,396
2019-01-20T09:03:41.051Z,397
2019-01-20T09:04:47.977Z,396
2019-01-20T09:05:55.180Z,396
2019-01-20T09:07:02.071Z,396
2019-01-20T09:08:09.005Z,395
2019-01-20T09:09:15.927Z,395
2019-01-20T09:10:22.862Z,396
2019-01-20T09:11:29.783Z,395
2019-01-20T09:12:37.217Z,395
2019-01-20T09:13:44.403Z,396
2019-01-20T09:14:51.602Z,396
2019-01-20T09:15:58.539Z,395
2019-01-20T09:17:05.739Z,395
2019-01-20T09:18:12.945Z,395
2019-01-20T09:19:20.141Z,394
2019-01-20T09:20:27.341Z,393
2019-01-20T09:21:34.572Z,393
2019-01-20T09:22:41.787Z,393
2019-01-20T09:23:48.463Z,393
2019-01-20T09:24:55.676Z,394
2019-01-20T09:26:02.882Z,394
2019-01-20T09:27:10.090Z,394
2019-01-20T09:28:17.016Z,394
2019-01-20T09:29:24.225Z,394
2019-01-20T09:30:31.430Z,393
2019-01-20T09:31:38.659Z,393
2019-01-20T09:32:45.852Z,394
2019-01-20T09:33:53.055Z,393
2019-01-20T09:35:00.274Z,394
2019-01-20T09:36:07.205Z,393
2019-01-20T09:37:14.412Z,392
2019-01-20T09:38:21.344Z,392
2019-01-20T09:39:28.269Z,393
2019-01-20T09:40:35.472Z,392
2019-01-20T09:41:42.670Z,392
2019-01-20T09:42:49.868Z,393
2019-01-20T09:43:57.072Z,392
2019-01-20T09:45:04.006Z,392
2019-01-20T09:46:10.968Z,392
2019-01-20T09:47:18.179Z,392
2019-01-20T09:48:25.392Z,391
2019-01-20T09:49:32.599Z,392
2019-01-20T09:50:39.546Z,391
2019-01-20T09:51:46.757Z,392
2019-01-20T09:52:54.880Z,391
2019-01-20T09:54:02.103Z,391
2019-01-20T09:55:09.309Z,390
2019-01-20T09:56:16.531Z,390
2019-01-20T09:57:23.467Z,391
2019-01-20T09:58:30.671Z,391
2019-01-20T09:59:37.915Z,391
2019-01-20T10:00:45.127Z,391
2019-01-20T10:01:52.357Z,391
2019-01-20T10:02:59.564Z,390
2019-01-20T10:04:06.837Z,390
2019-01-20T10:05:13.771Z,390
2019-01-20T10:06:20.971Z,390
2019-01-20T10:07:27.890Z,391
2019-01-20T10:08:35.117Z,390
2019-01-20T10:09:42.344Z,389
2019-01-20T10:10:49.002Z,390
2019-01-20T10:11:56.214Z,390
2019-01-20T10:13:03.412Z,389
2019-01-20T10:14:10.619Z,389
2019-01-20T10:15:17.556Z,389
2019-01-20T10:16:24.762Z,389
2019-01-20T10:17:31.977Z,389
2019-01-20T10:18:39.190Z,388
2019-01-20T10:19:46.410Z,388
2019-01-20T10:20:53.613Z,388
2019-01-20T10:22:00.535Z,387
2019-01-20T10:23:07.465Z,388
2019-01-20T10:24:14.668Z,388
2019-01-20T10:25:21.871Z,387
2019-01-20T10:26:29.077Z,387
2019-01-20T10:27:36.620Z,387
2019-01-20T10:28:43.280Z,386
2019-01-20T10:29:50.493Z,386
2019-01-20T10:30:57.707Z,386
2019-01-20T10:32:04.637Z,385
2019-01-20T10:33:11.848Z,385
2019-01-20T10:34:18.781Z,384
2019-01-20T10:35:26.008Z,384
2019-01-20T10:36:34.180Z,383
2019-01-20T10:37:41.422Z,383
2019-01-20T10:38:48.364Z,382
2019-01-20T10:39:55.575Z,381
2019-01-20T10:41:02.789Z,381
2019-01-20T10:42:10.003Z,378
2019-01-20T10:43:17.222Z,379
2019-01-20T10:44:24.449Z,381
2019-01-20T10:45:31.676Z,382
2019-01-20T10:46:38.901Z,382
2019-01-20T10:47:46.114Z,382
2019-01-20T10:48:53.324Z,381
2019-01-20T10:50:00.255Z,380
2019-01-20T10:51:07.473Z,378
2019-01-20T10:52:14.686Z,377
2019-01-20T10:53:21.898Z,377
2019-01-20T10:54:28.850Z,375
2019-01-20T10:55:36.058Z,371
2019-01-20T10:56:43.277Z,371
2019-01-20T10:57:50.489Z,369
2019-01-20T10:58:57.696Z,369
2019-01-20T11:00:04.629Z,368
2019-01-20T11:01:11.560Z,367
2019-01-20T11:02:18.510Z,366
2019-01-20T11:03:25.723Z,365
2019-01-20T11:04:32.926Z,365
2019-01-20T11:05:39.869Z,363
2019-01-20T11:06:47.079Z,363
2019-01-20T11:07:54.282Z,362
2019-01-20T11:09:01.241Z,361
2019-01-20T11:10:08.185Z,360
2019-01-20T11:11:15.411Z,361
2019-01-20T11:12:22.626Z,361
2019-01-20T11:13:29.839Z,363
2019-01-20T11:14:37.053Z,362
2019-01-20T11:15:44.268Z,360
2019-01-20T11:16:51.473Z,358
2019-01-20T11:17:58.407Z,359
2019-01-20T11:19:05.567Z,360
2019-01-20T11:20:12.793Z,360
2019-01-20T11:21:20.002Z,359
2019-01-20T11:22:27.216Z,357
2019-01-20T11:23:34.434Z,356
2019-01-20T11:24:41.117Z,357
2019-01-20T11:25:48.354Z,356
2019-01-20T11:26:55.558Z,356
2019-01-20T11:28:02.495Z,356
2019-01-20T11:29:09.441Z,356
2019-01-20T11:30:16.656Z,355
2019-01-20T11:31:23.864Z,353
2019-01-20T11:32:30.788Z,355
2019-01-20T11:33:37.739Z,356
2019-01-20T11:34:44.967Z,356
2019-01-20T11:35:52.182Z,355
2019-01-20T11:36:59.422Z,355
2019-01-20T11:38:06.375Z,356
2019-01-20T11:39:13.610Z,357
2019-01-20T11:40:20.840Z,355
2019-01-20T11:41:29.451Z,353
2019-01-20T11:42:36.112Z,356
2019-01-20T11:43:43.319Z,360
2019-01-20T11:44:50.540Z,361
2019-01-20T11:45:57.753Z,360
2019-01-20T11:47:04.967Z,356
2019-01-20T11:48:12.190Z,356
2019-01-20T11:49:18.854Z,354
2019-01-20T11:50:25.514Z,353
2019-01-20T11:51:32.719Z,354
2019-01-20T11:52:39.924Z,353
2019-01-20T11:53:47.146Z,351
2019-01-20T11:54:54.094Z,352
2019-01-20T11:56:01.041Z,350
2019-01-20T11:57:08.260Z,349
2019-01-20T11:58:15.479Z,349
2019-01-20T11:59:22.235Z,349
2019-01-20T12:00:29.181Z,350
2019-01-20T12:01:36.394Z,349
2019-01-20T12:02:43.332Z,348
2019-01-20T12:03:50.543Z,349
2019-01-20T12:04:57.765Z,349
2019-01-20T12:06:04.977Z,348
2019-01-20T12:07:12.185Z,348
2019-01-20T12:08:19.134Z,348
2019-01-20T12:09:26.357Z,350
2019-01-20T12:10:33.289Z,350
2019-01-20T12:11:40.498Z,349
2019-01-20T12:12:47.427Z,348
2019-01-20T12:13:54.640Z,346
2019-01-20T12:15:01.861Z,345
2019-01-20T12:16:09.077Z,344
2019-01-20T12:17:16.296Z,345
2019-01-20T12:18:23.508Z,345
2019-01-20T12:19:30.729Z,349
2019-01-20T12:20:37.947Z,347
2019-01-20T12:21:45.167Z,347
2019-01-20T12:22:52.286Z,346
2019-01-20T12:23:59.502Z,346
2019-01-20T12:25:06.478Z,349
2019-01-20T12:26:13.697Z,352
2019-01-20T12:27:20.934Z,349
2019-01-20T12:28:27.903Z,350
2019-01-20T12:29:35.129Z,348
2019-01-20T12:30:42.083Z,350
2019-01-20T12:31:49.026Z,346
2019-01-20T12:32:56.223Z,344
2019-01-20T12:34:03.168Z,345
2019-01-20T12:35:10.382Z,346
2019-01-20T12:36:17.346Z,345
2019-01-20T12:37:24.573Z,342
2019-01-20T12:38:31.814Z,345
2019-01-20T12:39:39.039Z,350
2019-01-20T12:40:45.978Z,351
2019-01-20T12:41:53.243Z,351
2019-01-20T12:43:00.460Z,351
2019-01-20T12:44:07.679Z,348
2019-01-20T12:45:14.913Z,345
2019-01-20T12:46:22.133Z,345
2019-01-20T12:47:29.361Z,343
2019-01-20T12:48:36.583Z,342
2019-01-20T12:49:43.816Z,346
2019-01-20T12:50:51.036Z,346
2019-01-20T12:51:58.272Z,345
2019-01-20T12:53:05.206Z,343
2019-01-20T12:54:12.188Z,341
2019-01-20T12:55:19.419Z,340
2019-01-20T12:56:26.372Z,340
2019-01-20T12:57:33.522Z,340
2019-01-20T12:58:40.738Z,340
2019-01-20T12:59:47.960Z,339
2019-01-20T13:00:55.116Z,341
2019-01-20T13:02:02.360Z,341
2019-01-20T13:03:09.601Z,341
2019-01-20T13:04:16.822Z,343
2019-01-20T13:05:24.056Z,346
2019-01-20T13:06:31.292Z,346
2019-01-20T13:07:38.723Z,343
2019-01-20T13:08:45.700Z,342
2019-01-20T13:09:52.916Z,344
2019-01-20T13:11:00.134Z,344
2019-01-20T13:12:07.081Z,342
2019-01-20T13:13:14.309Z,343
2019-01-20T13:14:21.564Z,343
2019-01-20T13:15:28.518Z,342
2019-01-20T13:16:35.734Z,342
2019-01-20T13:17:42.696Z,346
2019-01-20T13:18:49.924Z,346
2019-01-20T13:19:56.868Z,344
2019-01-20T13:21:04.089Z,343
2019-01-20T13:22:11.318Z,341
2019-01-20T13:23:18.531Z,343
2019-01-20T13:24:25.767Z,343
2019-01-20T13:25:32.987Z,340
2019-01-20T13:26:39.935Z,339
2019-01-20T13:27:47.189Z,341
2019-01-20T13:28:54.411Z,340
2019-01-20T13:30:01.637Z,339
2019-01-20T13:31:08.861Z,339
2019-01-20T13:32:16.070Z,342
2019-01-20T13:33:23.513Z,344
2019-01-20T13:34:30.722Z,342
2019-01-20T13:35:37.942Z,339
2019-01-20T13:36:45.220Z,337
2019-01-20T13:37:52.372Z,336
2019-01-20T13:38:59.589Z,338
2019-01-20T13:40:06.545Z,338
2019-01-20T13:41:13.776Z,340
2019-01-20T13:42:20.992Z,342
2019-01-20T13:43:28.421Z,339
2019-01-20T13:44:35.645Z,340
2019-01-20T13:45:42.876Z,340
2019-01-20T13:46:50.111Z,340
2019-01-20T13:47:57.334Z,339
2019-01-20T13:49:04.544Z,340
2019-01-20T13:50:11.815Z,341
2019-01-20T13:51:18.788Z,340
2019-01-20T13:52:26.030Z,340
2019-01-20T13:53:33.463Z,339
2019-01-20T13:54:40.432Z,339
2019-01-20T13:55:47.655Z,339
2019-01-20T13:56:54.874Z,338
2019-01-20T13:58:02.122Z,337
2019-01-20T13:59:09.352Z,338
2019-01-20T14:00:16.582Z,339
2019-01-20T23:00:06.409Z,409
2019-01-20T23:01:13.605Z,408
2019-01-20T23:02:20.805Z,407
2019-01-20T23:03:28.001Z,406
2019-01-20T23:04:35.218Z,405
2019-01-20T23:05:42.416Z,404
2019-01-20T23:06:50.028Z,403
2019-01-20T23:07:57.223Z,403
2019-01-20T23:09:07.769Z,403
2019-01-20T23:10:14.982Z,403
2019-01-20T23:11:21.906Z,402
2019-01-20T23:12:29.110Z,402
2019-01-20T23:13:36.316Z,401
2019-01-20T23:14:43.517Z,401
2019-01-20T23:15:50.701Z,401
2019-01-20T23:16:57.891Z,401
2019-01-20T23:18:05.283Z,401
2019-01-20T23:19:12.579Z,401
2019-01-20T23:20:19.783Z,400
2019-01-20T23:21:26.979Z,400
2019-01-20T23:22:33.904Z,400
2019-01-20T23:23:41.110Z,400
2019-01-20T23:24:48.049Z,399
2019-01-20T23:25:55.009Z,399
2019-01-20T23:27:02.209Z,400
2019-01-20T23:28:09.408Z,399
2019-01-20T23:29:18.111Z,400
2019-01-20T23:30:25.511Z,399
2019-01-20T23:31:32.729Z,399
2019-01-20T23:32:39.943Z,399
2019-01-20T23:33:47.143Z,399
2019-01-20T23:34:54.353Z,398
2019-01-20T23:36:01.707Z,399
2019-01-20T23:37:08.968Z,399
2019-01-20T23:38:16.167Z,398
2019-01-20T23:39:23.367Z,398
2019-01-20T23:40:30.847Z,398
2019-01-20T23:41:38.038Z,399
2019-01-20T23:42:44.986Z,398
2019-01-20T23:43:52.375Z,399
2019-01-20T23:44:59.684Z,398
2019-01-20T23:46:06.895Z,398
2019-01-20T23:47:16.364Z,399
2019-01-20T23:48:23.566Z,398
2019-01-20T23:49:30.501Z,398
2019-01-20T23:50:37.694Z,398
2019-01-20T23:51:44.982Z,398
2019-01-20T23:52:52.263Z,398
2019-01-20T23:53:59.463Z,398
2019-01-20T23:55:06.394Z,398
2019-01-20T23:56:13.593Z,398
2019-01-20T23:57:20.792Z,398
2019-01-20T23:58:27.997Z,398
2019-01-20T23:59:34.917Z,398
